Time;durP1;ratioP1;P1;durP2;ratioP2;P2;SDS_P1;SDS_P2;PMS_P1;PMS_P2;Temp;Humidity;BMP_temperature;BMP_pressure;BME280_temperature;BME280_humidity;BME280_pressure;Samples;Min_cycle;Max_cycle;Signal;HPM_P1;HPM_P2
2023/11/05 00:04:52;;;;;;;11.77;10.00;;;16.00;78.70;;;;;;10408043;28;20496;-57
2023/11/05 00:09:53;;;;;;;12.30;10.32;;;16.00;78.70;;;;;;10406838;28;20405;-57
2023/11/05 00:14:53;;;;;;;11.38;10.20;;;16.10;78.80;;;;;;10406719;28;20458;-58
2023/11/05 00:19:54;;;;;;;11.20;9.75;;;16.00;78.80;;;;;;10405778;28;20429;-58
2023/11/05 00:24:55;;;;;;;11.98;9.13;;;16.00;78.80;;;;;;10406844;28;20481;-57
2023/11/05 00:29:57;;;;;;;11.13;9.85;;;16.00;78.80;;;;;;10419606;28;20051;-58
2023/11/05 00:34:57;;;;;;;10.85;9.45;;;16.00;78.80;;;;;;10405717;28;20419;-58
2023/11/05 00:39:58;;;;;;;11.80;10.30;;;16.00;78.70;;;;;;10404928;28;20031;-57
2023/11/05 00:44:59;;;;;;;13.70;8.80;;;16.00;78.70;;;;;;10405341;28;20034;-57
2023/11/05 00:50:00;;;;;;;9.68;8.63;;;16.00;78.70;;;;;;10405288;28;20036;-57
2023/11/05 00:55:00;;;;;;;10.10;9.15;;;16.00;78.70;;;;;;10404926;28;20493;-57
2023/11/05 01:00:03;;;;;;;12.88;9.68;;;16.00;78.70;;;;;;10405838;28;20037;-57
2023/11/05 01:05:04;;;;;;;12.20;9.20;;;16.00;78.70;;;;;;10404488;28;20484;-57
2023/11/05 01:10:05;;;;;;;9.05;8.07;;;16.00;78.70;;;;;;10403842;28;20079;-57
2023/11/05 01:15:07;;;;;;;9.13;8.23;;;15.90;78.60;;;;;;10404310;28;20065;-57
2023/11/05 01:20:08;;;;;;;8.90;7.93;;;15.90;78.60;;;;;;10405239;28;20044;-58
2023/11/05 01:25:10;;;;;;;9.00;7.85;;;15.90;78.60;;;;;;10405557;28;20033;-58
2023/11/05 01:30:11;;;;;;;9.32;8.43;;;15.90;78.60;;;;;;10406462;28;20056;-57
2023/11/05 01:35:13;;;;;;;11.25;8.98;;;15.90;78.60;;;;;;10405182;28;20033;-57
2023/11/05 01:40:13;;;;;;;8.77;7.78;;;15.90;78.60;;;;;;10405847;28;20401;-58
2023/11/05 01:45:14;;;;;;;8.15;7.32;;;15.90;78.50;;;;;;10404648;28;20030;-57
2023/11/05 01:50:16;;;;;;;8.77;7.88;;;15.90;78.60;;;;;;10405696;28;20048;-56
2023/11/05 01:55:17;;;;;;;10.23;8.40;;;15.90;78.60;;;;;;10406810;28;20679;-57
2023/11/05 02:00:18;;;;;;;8.15;7.35;;;15.90;78.60;;;;;;10404694;28;20057;-57
2023/11/05 02:05:20;;;;;;;7.40;6.70;;;15.90;78.60;;;;;;10406942;28;20037;-57
2023/11/05 02:10:21;;;;;;;10.13;8.02;;;15.90;78.60;;;;;;10406340;28;20026;-57
2023/11/05 02:15:23;;;;;;;8.82;7.93;;;15.90;78.60;;;;;;10404091;28;20563;-57
2023/11/05 02:20:24;;;;;;;8.25;7.20;;;15.90;78.60;;;;;;10405340;28;20396;-57
2023/11/05 02:25:25;;;;;;;7.93;6.88;;;15.90;78.60;;;;;;10405276;28;20035;-58
2023/11/05 02:30:26;;;;;;;7.47;6.72;;;15.90;78.60;;;;;;10416959;28;20496;-57
2023/11/05 02:35:26;;;;;;;7.53;6.47;;;15.90;78.60;;;;;;10405583;28;20120;-57
2023/11/05 02:40:27;;;;;;;7.70;5.95;;;15.80;78.50;;;;;;10404772;28;20032;-57
2023/11/05 02:45:28;;;;;;;9.40;7.70;;;15.80;78.50;;;;;;10405173;28;20297;-57
2023/11/05 02:50:29;;;;;;;6.88;5.97;;;15.80;78.50;;;;;;10404427;28;20025;-57
2023/11/05 02:55:29;;;;;;;9.25;6.63;;;15.80;78.50;;;;;;10404900;28;20481;-57
2023/11/05 03:00:33;;;;;;;7.43;6.72;;;15.80;78.50;;;;;;10404360;28;20040;-57
2023/11/05 03:05:34;;;;;;;10.30;7.53;;;15.80;78.50;;;;;;10403108;28;20064;-57
2023/11/05 03:10:35;;;;;;;8.60;6.30;;;15.80;78.50;;;;;;10406512;28;20492;-57
2023/11/05 03:15:36;;;;;;;7.20;5.35;;;15.90;78.50;;;;;;10411795;28;20435;-57
2023/11/05 03:20:36;;;;;;;6.60;5.78;;;15.90;78.50;;;;;;10411274;28;20044;-58
2023/11/05 03:25:40;;;;;;;6.93;5.85;;;15.80;78.40;;;;;;10410321;28;20037;-57
2023/11/05 03:30:41;;;;;;;7.75;6.57;;;15.80;78.50;;;;;;10410662;28;20073;-57
2023/11/05 03:35:42;;;;;;;7.85;6.10;;;15.80;78.50;;;;;;10410792;28;20128;-57
2023/11/05 03:40:42;;;;;;;6.97;5.03;;;15.80;78.50;;;;;;10410350;28;20427;-58
2023/11/05 03:45:43;;;;;;;7.13;5.32;;;15.80;78.50;;;;;;10409006;28;20022;-58
2023/11/05 03:50:44;;;;;;;6.55;5.05;;;15.80;78.50;;;;;;10409863;28;20034;-57
2023/11/05 03:55:44;;;;;;;5.55;5.03;;;15.80;78.50;;;;;;10410073;28;20025;-57
2023/11/05 04:00:46;;;;;;;7.40;5.45;;;15.80;78.50;;;;;;10409332;28;20033;-57
2023/11/05 04:05:46;;;;;;;6.55;5.85;;;15.80;78.50;;;;;;10409712;28;20036;-58
2023/11/05 04:10:47;;;;;;;6.03;5.32;;;15.80;78.50;;;;;;10408999;28;20036;-57
2023/11/05 04:15:48;;;;;;;7.28;5.07;;;15.80;78.50;;;;;;10409339;28;20033;-57
2023/11/05 04:20:49;;;;;;;7.18;5.35;;;15.80;78.50;;;;;;10408445;28;20033;-57
2023/11/05 04:25:49;;;;;;;6.00;5.32;;;15.80;78.50;;;;;;10409798;28;20032;-57
2023/11/05 04:30:50;;;;;;;6.82;4.78;;;15.70;78.40;;;;;;10407440;28;20045;-57
2023/11/05 04:35:51;;;;;;;5.97;5.03;;;15.80;78.50;;;;;;10408559;28;20441;-57
2023/11/05 04:40:52;;;;;;;6.30;4.65;;;15.70;78.50;;;;;;10407890;28;20033;-57
2023/11/05 04:45:52;;;;;;;4.47;3.92;;;15.70;78.40;;;;;;10408348;28;20033;-58
2023/11/05 04:50:54;;;;;;;6.28;4.70;;;15.70;78.40;;;;;;10408201;28;20033;-57
2023/11/05 04:55:55;;;;;;;5.80;5.13;;;15.70;78.40;;;;;;10407836;28;20373;-57
2023/11/05 05:00:56;;;;;;;6.25;4.28;;;15.70;78.40;;;;;;10407180;28;20037;-57
2023/11/05 05:05:56;;;;;;;5.80;5.20;;;15.70;78.40;;;;;;10407552;28;20076;-57
2023/11/05 05:10:57;;;;;;;7.25;5.30;;;15.70;78.50;;;;;;10406610;28;20026;-57
2023/11/05 05:15:58;;;;;;;6.10;4.50;;;15.70;78.50;;;;;;10407241;28;20040;-58
2023/11/05 05:21:00;;;;;;;4.55;3.97;;;15.70;78.50;;;;;;10406443;28;20074;-57
2023/11/05 05:26:02;;;;;;;6.30;5.13;;;15.70;78.50;;;;;;10406891;28;20481;-57
2023/11/05 05:31:03;;;;;;;5.60;4.65;;;15.70;78.50;;;;;;10418396;28;20412;-57
2023/11/05 05:36:04;;;;;;;4.63;4.13;;;15.70;78.50;;;;;;10416454;28;20044;-56
2023/11/05 05:41:05;;;;;;;5.30;4.45;;;15.70;78.50;;;;;;10452576;28;20719;-57
2023/11/05 05:46:06;;;;;;;5.55;4.32;;;15.90;78.10;;;;;;10418423;28;20125;-58
2023/11/05 05:51:12;;;;;;;4.40;4.00;;;16.10;77.20;;;;;;10422952;28;20459;-57
2023/11/05 05:56:13;;;;;;;5.65;4.35;;;16.30;76.10;;;;;;10425328;28;20067;-59
2023/11/05 06:01:13;;;;;;;4.85;4.00;;;16.60;75.40;;;;;;10421076;28;20049;-58
2023/11/05 06:06:14;;;;;;;4.80;4.32;;;16.80;74.50;;;;;;10406701;28;20141;-58
2023/11/05 06:11:15;;;;;;;5.85;3.65;;;17.00;74.00;;;;;;10406638;28;20472;-57
2023/11/05 06:16:16;;;;;;;6.65;3.65;;;17.20;73.70;;;;;;10406151;28;20385;-57
2023/11/05 06:21:18;;;;;;;6.07;4.18;;;17.30;73.40;;;;;;10406918;28;20048;-56
2023/11/05 06:26:19;;;;;;;11.68;4.55;;;17.50;73.40;;;;;;10409706;28;20041;-60
2023/11/05 06:31:19;;;;;;;13.13;4.60;;;17.60;73.50;;;;;;10405195;28;20049;-57
2023/11/05 06:36:20;;;;;;;11.93;4.60;;;17.70;73.40;;;;;;10404642;28;20036;-58
2023/11/05 06:41:21;;;;;;;11.25;4.60;;;17.70;73.70;;;;;;10402806;28;20832;-56
2023/11/05 06:46:21;;;;;;;14.82;4.80;;;17.80;74.10;;;;;;10410861;28;20159;-57
2023/11/05 06:51:22;;;;;;;12.38;3.63;;;17.90;74.00;;;;;;10413797;28;20026;-56
2023/11/05 06:56:23;;;;;;;8.82;3.35;;;17.90;74.30;;;;;;10422269;28;20026;-55
2023/11/05 07:01:24;;;;;;;13.05;4.15;;;17.90;74.30;;;;;;10430516;28;20033;-55
2023/11/05 07:06:26;;;;;;;8.05;3.63;;;18.00;74.60;;;;;;10429743;28;20037;-56
2023/11/05 07:11:28;;;;;;;13.77;4.32;;;17.90;74.70;;;;;;10428971;28;20029;-56
2023/11/05 07:16:29;;;;;;;8.43;3.95;;;17.90;74.50;;;;;;10390954;28;20139;-56
2023/11/05 07:21:31;;;;;;;14.48;3.90;;;17.70;75.50;;;;;;10413405;28;20044;-56
2023/11/05 07:26:32;;;;;;;14.40;4.35;;;17.70;75.20;;;;;;10424107;28;20048;-56
2023/11/05 07:31:33;;;;;;;11.80;3.63;;;17.60;75.10;;;;;;10426519;28;20047;-56
2023/11/05 07:36:36;;;;;;;15.45;4.72;;;17.60;74.90;;;;;;10412300;28;20056;-58
2023/11/05 07:41:37;;;;;;;16.85;5.15;;;17.60;74.80;;;;;;10411383;28;20080;-56
2023/11/05 07:46:38;;;;;;;13.48;3.90;;;17.60;75.00;;;;;;10412607;28;20034;-55
2023/11/05 07:51:38;;;;;;;12.85;3.90;;;17.60;75.20;;;;;;10412631;28;20403;-55
2023/11/05 07:56:39;;;;;;;25.42;4.55;;;17.40;75.80;;;;;;10410541;28;20144;-60
2023/11/05 08:01:41;;;;;;;11.60;3.60;;;17.40;75.90;;;;;;10412211;28;20025;-57
2023/11/05 08:06:43;;;;;;;10.77;4.18;;;17.30;75.60;;;;;;10411156;28;20038;-57
2023/11/05 08:11:44;;;;;;;17.25;4.00;;;17.40;75.20;;;;;;10411534;28;20380;-56
2023/11/05 08:16:44;;;;;;;13.63;3.60;;;17.40;75.10;;;;;;10410580;28;20083;-57
2023/11/05 08:21:45;;;;;;;11.98;3.10;;;17.30;75.20;;;;;;10410762;28;20451;-57
2023/11/05 08:26:47;;;;;;;7.53;2.58;;;17.40;75.00;;;;;;10408961;28;20033;-57
2023/11/05 08:31:48;;;;;;;10.63;2.90;;;17.40;75.00;;;;;;10409485;28;20043;-57
2023/11/05 08:36:49;;;;;;;4.75;2.42;;;17.40;75.00;;;;;;10410193;28;20033;-57
2023/11/05 08:41:50;;;;;;;6.97;2.85;;;17.40;74.70;;;;;;10409617;28;20434;-55
2023/11/05 08:46:51;;;;;;;9.25;2.95;;;17.40;74.60;;;;;;10409461;28;20079;-57
2023/11/05 08:51:53;;;;;;;6.43;2.22;;;17.40;74.80;;;;;;10408371;28;20469;-57
2023/11/05 08:56:53;;;;;;;8.15;2.88;;;17.40;74.70;;;;;;10409306;28;20085;-57
2023/11/05 09:01:54;;;;;;;7.57;2.80;;;17.30;74.60;;;;;;10409380;28;20029;-57
2023/11/05 09:06:55;;;;;;;4.53;2.00;;;17.40;74.60;;;;;;10408751;28;20037;-57
2023/11/05 09:11:55;;;;;;;7.32;2.47;;;17.30;74.70;;;;;;10408973;28;20029;-57
2023/11/05 09:16:56;;;;;;;9.35;2.80;;;17.30;74.60;;;;;;10408207;28;20025;-58
2023/11/05 09:21:57;;;;;;;4.70;2.03;;;17.30;74.50;;;;;;10408511;28;20039;-57
2023/11/05 09:26:58;;;;;;;9.68;1.90;;;17.30;74.60;;;;;;10407847;28;20045;-57
2023/11/05 09:31:59;;;;;;;6.13;2.47;;;17.20;74.90;;;;;;10421413;28;20058;-57
2023/11/05 09:36:59;;;;;;;5.75;2.13;;;17.20;74.80;;;;;;10407942;28;20033;-57
2023/11/05 09:42:01;;;;;;;6.43;2.20;;;17.20;74.70;;;;;;10407606;28;20101;-56
2023/11/05 09:47:02;;;;;;;8.88;2.50;;;17.30;74.50;;;;;;10407436;28;20473;-57
2023/11/05 09:52:06;;;;;;;5.72;2.30;;;17.40;74.30;;;;;;10407771;28;20443;-57
2023/11/05 09:57:07;;;;;;;6.63;2.47;;;17.40;74.30;;;;;;10407496;28;20112;-57
2023/11/05 10:02:08;;;;;;;4.63;2.78;;;17.30;74.60;;;;;;10407276;28;20037;-57
2023/11/05 10:07:09;;;;;;;3.47;1.70;;;17.20;74.70;;;;;;10406873;28;20025;-57
2023/11/05 10:12:09;;;;;;;3.92;2.22;;;17.20;75.00;;;;;;10406914;28;20155;-57
2023/11/05 10:17:10;;;;;;;3.58;1.92;;;17.20;74.90;;;;;;10406802;28;20531;-57
2023/11/05 10:22:17;;;;;;;5.50;1.98;;;17.20;74.70;;;;;;10414224;28;20296;-57
2023/11/05 10:27:30;;;;;;;5.82;2.45;;;17.20;74.80;;;;;;10412845;28;20029;-57
2023/11/05 10:32:33;;;;;;;4.32;2.03;;;17.10;75.00;;;;;;10426516;28;20053;-57
2023/11/05 10:37:33;;;;;;;5.60;1.80;;;17.20;74.90;;;;;;10413546;28;20021;-57
2023/11/05 10:42:35;;;;;;;3.80;1.77;;;17.20;74.80;;;;;;10414314;28;20029;-56
2023/11/05 10:47:36;;;;;;;4.40;2.20;;;17.30;74.40;;;;;;10414425;28;20576;-57
2023/11/05 10:52:42;;;;;;;4.30;1.88;;;17.40;74.30;;;;;;10414192;28;20034;-56
2023/11/05 10:57:48;;;;;;;3.30;1.80;;;17.30;74.30;;;;;;10413892;28;20056;-56
2023/11/05 11:02:49;;;;;;;4.57;1.95;;;17.20;74.60;;;;;;10413811;28;20120;-57
2023/11/05 11:07:50;;;;;;;5.65;2.00;;;17.20;74.70;;;;;;10413005;28;20033;-57
2023/11/05 11:12:51;;;;;;;3.53;1.42;;;17.10;75.00;;;;;;10412455;28;20026;-56
2023/11/05 11:17:52;;;;;;;3.33;1.95;;;17.10;75.10;;;;;;10395334;28;20034;-57
2023/11/05 11:22:53;;;;;;;4.47;1.80;;;17.10;74.70;;;;;;10413112;28;20036;-56
2023/11/05 11:27:53;;;;;;;3.95;1.60;;;17.10;74.60;;;;;;10412808;28;20095;-57
2023/11/05 11:32:54;;;;;;;2.83;1.25;;;17.20;74.70;;;;;;10424822;28;20079;-57
2023/11/05 11:37:57;;;;;;;3.63;2.25;;;17.10;74.70;;;;;;10412340;28;20579;-56
2023/11/05 11:42:57;;;;;;;3.47;1.60;;;17.20;74.50;;;;;;10412359;28;20030;-56
2023/11/05 11:48:05;;;;;;;4.00;1.42;;;17.10;74.50;;;;;;10411068;28;20021;-57
2023/11/05 11:53:06;;;;;;;3.85;1.20;;;17.20;74.60;;;;;;10411937;28;20049;-57
2023/11/05 11:58:07;;;;;;;4.22;1.52;;;17.30;74.30;;;;;;10411129;28;20394;-56
2023/11/05 12:03:08;;;;;;;3.05;1.33;;;17.20;74.30;;;;;;10411637;28;20099;-57
2023/11/05 12:08:09;;;;;;;4.18;1.50;;;17.20;74.50;;;;;;10410668;28;20022;-56
2023/11/05 12:13:11;;;;;;;3.08;1.23;;;17.10;74.70;;;;;;10411116;28;20037;-56
2023/11/05 12:18:12;;;;;;;2.90;1.83;;;17.00;74.90;;;;;;10409232;28;20076;-57
2023/11/05 12:23:13;;;;;;;4.10;1.70;;;17.00;75.20;;;;;;10410743;28;20029;-57
2023/11/05 12:28:13;;;;;;;2.17;1.27;;;17.10;75.00;;;;;;10410317;28;20025;-56
2023/11/05 12:33:14;;;;;;;3.80;1.23;;;17.10;74.70;;;;;;10410897;28;20048;-56
2023/11/05 12:38:15;;;;;;;3.20;1.20;;;17.10;74.60;;;;;;10410001;28;20095;-56
2023/11/05 12:43:15;;;;;;;3.70;1.30;;;17.10;74.80;;;;;;10410166;28;20087;-57
2023/11/05 12:48:16;;;;;;;1.63;1.13;;;17.10;74.50;;;;;;10409595;28;20036;-57
2023/11/05 12:53:18;;;;;;;4.30;1.60;;;17.10;74.30;;;;;;10409836;28;20497;-57
2023/11/05 12:58:19;;;;;;;3.10;1.20;;;17.20;74.50;;;;;;10409048;28;20456;-56
2023/11/05 13:03:20;;;;;;;1.92;1.30;;;17.10;74.50;;;;;;10408014;28;20025;-57
2023/11/05 13:08:21;;;;;;;3.65;1.10;;;17.20;74.20;;;;;;10407259;28;20025;-57
2023/11/05 13:13:23;;;;;;;2.20;1.10;;;17.10;74.30;;;;;;10409225;28;20076;-57
2023/11/05 13:18:24;;;;;;;2.85;0.88;;;17.10;74.50;;;;;;10440280;28;20045;-57
2023/11/05 13:23:26;;;;;;;2.72;1.15;;;17.20;74.40;;;;;;10407347;28;20483;-56
2023/11/05 13:28:26;;;;;;;1.50;1.00;;;17.20;74.20;;;;;;10440920;28;20025;-56
2023/11/05 13:33:27;;;;;;;2.53;1.08;;;17.20;74.30;;;;;;10420466;28;20098;-57
2023/11/05 13:38:28;;;;;;;8.48;1.65;;;17.10;74.40;;;;;;10407486;28;20034;-57
2023/11/05 13:43:29;;;;;;;1.80;1.00;;;17.20;74.10;;;;;;10407285;28;20025;-57
2023/11/05 13:48:30;;;;;;;3.25;1.50;;;17.20;74.00;;;;;;10407098;28;20338;-55
2023/11/05 13:53:31;;;;;;;2.65;1.10;;;17.20;74.30;;;;;;10405705;28;20026;-57
2023/11/05 13:58:31;;;;;;;1.80;0.88;;;17.20;74.30;;;;;;10405752;28;20389;-57
2023/11/05 14:03:32;;;;;;;2.75;1.42;;;17.20;74.00;;;;;;10407668;28;20036;-57
2023/11/05 14:08:33;;;;;;;1.38;0.70;;;17.20;74.10;;;;;;10406995;28;20021;-57
2023/11/05 14:13:34;;;;;;;2.30;1.02;;;17.20;74.20;;;;;;10407112;28;20029;-57
2023/11/05 14:18:34;;;;;;;1.38;0.75;;;17.20;74.00;;;;;;10405468;28;20030;-57
2023/11/05 14:23:35;;;;;;;2.33;1.10;;;17.20;73.80;;;;;;10406736;28;20037;-56
2023/11/05 14:28:38;;;;;;;2.78;1.10;;;17.20;74.00;;;;;;10407689;28;20030;-56
2023/11/05 14:33:39;;;;;;;1.95;0.93;;;17.20;74.00;;;;;;10417498;28;20112;-57
2023/11/05 14:38:39;;;;;;;3.40;1.20;;;17.20;73.80;;;;;;10406122;28;20112;-56
2023/11/05 14:43:40;;;;;;;1.83;1.00;;;17.20;73.90;;;;;;10406841;28;20493;-57
2023/11/05 14:48:41;;;;;;;1.65;1.15;;;17.10;74.10;;;;;;10406050;28;20031;-57
2023/11/05 14:53:44;;;;;;;3.17;1.23;;;17.20;74.00;;;;;;10406349;28;20040;-57
2023/11/05 14:58:46;;;;;;;1.95;1.27;;;17.20;73.80;;;;;;10405899;28;20034;-57
2023/11/05 15:03:47;;;;;;;1.52;0.90;;;17.10;73.80;;;;;;10406419;28;20025;-57
2023/11/05 15:08:48;;;;;;;1.70;0.98;;;17.10;73.90;;;;;;10412948;28;20136;-57
2023/11/05 15:13:49;;;;;;;2.28;1.20;;;17.20;73.70;;;;;;10395746;28;20029;-57
2023/11/05 15:18:50;;;;;;;2.22;0.82;;;17.10;73.60;;;;;;10413191;28;20037;-57
2023/11/05 15:23:51;;;;;;;1.85;1.10;;;17.10;73.80;;;;;;10412771;28;20026;-57
2023/11/05 15:28:53;;;;;;;1.55;0.75;;;17.10;73.70;;;;;;10413806;28;20445;-57
2023/11/05 15:33:55;;;;;;;1.45;1.00;;;17.20;73.60;;;;;;10413057;28;20052;-57
2023/11/05 15:38:55;;;;;;;1.30;0.85;;;17.20;73.70;;;;;;10412108;28;20025;-57
2023/11/05 15:43:56;;;;;;;2.92;1.15;;;17.10;73.80;;;;;;10411534;28;20033;-57
2023/11/05 15:48:57;;;;;;;2.30;0.93;;;17.20;73.60;;;;;;10412248;28;20369;-56
2023/11/05 15:53:58;;;;;;;1.85;1.05;;;17.20;73.50;;;;;;10412053;28;20029;-56
2023/11/05 15:58:59;;;;;;;1.25;0.90;;;17.10;73.70;;;;;;10411222;28;20376;-57
2023/11/05 16:04:00;;;;;;;4.00;0.80;;;17.10;73.70;;;;;;10411588;28;20032;-57
2023/11/05 16:09:01;;;;;;;0.70;0.50;;;17.20;73.50;;;;;;10410930;28;20479;-57
2023/11/05 16:14:03;;;;;;;2.45;1.08;;;17.10;73.60;;;;;;10410853;28;20091;-56
2023/11/05 16:19:03;;;;;;;10.85;1.73;;;17.00;74.10;;;;;;10409023;28;20036;-55
2023/11/05 16:24:05;;;;;;;10.85;2.88;;;17.00;74.00;;;;;;10410505;28;20026;-57
2023/11/05 16:29:05;;;;;;;11.15;2.45;;;17.10;73.60;;;;;;10416653;28;20430;-57
2023/11/05 16:34:06;;;;;;;24.55;2.60;;;17.30;73.20;;;;;;10426712;28;20086;-59
2023/11/05 16:39:07;;;;;;;20.73;5.38;;;17.50;72.90;;;;;;10416049;28;20029;-58
2023/11/05 16:44:08;;;;;;;21.00;7.88;;;17.60;74.20;;;;;;10408708;28;20249;-57
2023/11/05 16:49:10;;;;;;;18.00;6.30;;;17.60;73.80;;;;;;10408756;28;20069;-58
2023/11/05 16:54:11;;;;;;;50.70;31.75;;;17.40;73.80;;;;;;10412114;28;20033;-58
2023/11/05 16:59:13;;;;;;;29.50;17.05;;;17.40;74.10;;;;;;10421776;28;20050;-58
2023/11/05 17:04:16;;;;;;;32.65;15.10;;;17.40;79.60;;;;;;10409345;28;20033;-56
2023/11/05 17:09:17;;;;;;;33.08;13.93;;;17.50;78.30;;;;;;10410261;28;20032;-56
2023/11/05 17:14:18;;;;;;;33.30;12.00;;;17.60;78.10;;;;;;10409576;28;20037;-58
2023/11/05 17:19:19;;;;;;;26.20;13.07;;;17.50;77.30;;;;;;10409976;28;20022;-58
2023/11/05 17:24:20;;;;;;;32.45;11.15;;;17.50;77.30;;;;;;10407523;28;20052;-58
2023/11/05 17:29:20;;;;;;;28.15;12.45;;;17.40;77.30;;;;;;10409008;28;20057;-58
2023/11/05 17:34:21;;;;;;;34.58;10.77;;;17.50;77.50;;;;;;10409229;28;20040;-58
2023/11/05 17:39:22;;;;;;;32.95;11.52;;;17.40;77.50;;;;;;10441288;28;20041;-58
2023/11/05 17:44:22;;;;;;;30.92;10.38;;;17.40;77.40;;;;;;10408648;28;20037;-58
2023/11/05 17:49:23;;;;;;;34.05;9.75;;;17.40;77.60;;;;;;10408774;28;20854;-58
2023/11/05 17:54:24;;;;;;;58.08;12.63;;;17.30;77.40;;;;;;10409875;28;20041;-59
2023/11/05 17:59:25;;;;;;;36.13;10.35;;;17.20;78.50;;;;;;10413421;28;20056;-58
2023/11/05 18:04:27;;;;;;;23.90;8.65;;;17.10;77.80;;;;;;10418019;28;20038;-57
2023/11/05 18:09:27;;;;;;;31.60;7.85;;;17.10;77.20;;;;;;10408285;28;20033;-57
2023/11/05 18:14:28;;;;;;;25.35;7.05;;;17.00;77.50;;;;;;10406412;28;20029;-57
2023/11/05 18:19:29;;;;;;;25.50;9.38;;;16.90;77.60;;;;;;10408115;28;20041;-57
2023/11/05 18:24:31;;;;;;;16.98;6.95;;;16.90;77.70;;;;;;10398833;28;20740;-57
2023/11/05 18:29:32;;;;;;;19.95;7.55;;;16.80;77.50;;;;;;10405392;28;20052;-57
2023/11/05 18:34:33;;;;;;;20.20;7.32;;;16.80;77.40;;;;;;10406947;28;20555;-57
2023/11/05 18:39:34;;;;;;;22.10;7.15;;;16.80;77.40;;;;;;10408262;28;20064;-61
2023/11/05 18:44:35;;;;;;;17.15;6.50;;;16.80;77.60;;;;;;10415173;28;20087;-61
2023/11/05 18:49:35;;;;;;;17.10;6.25;;;16.70;77.10;;;;;;10415642;28;20026;-61
2023/11/05 18:54:36;;;;;;;15.85;5.63;;;16.80;77.40;;;;;;10413840;28;20033;-61
2023/11/05 18:59:37;;;;;;;16.10;6.45;;;16.80;77.20;;;;;;10415275;28;20075;-62
2023/11/05 19:04:41;;;;;;;18.88;6.32;;;16.80;76.90;;;;;;10413290;28;20091;-57
2023/11/05 19:09:42;;;;;;;14.43;5.72;;;16.90;76.70;;;;;;10414614;28;20061;-57
2023/11/05 19:14:42;;;;;;;13.95;5.57;;;17.00;76.50;;;;;;10414280;28;20037;-57
2023/11/05 19:19:43;;;;;;;19.63;6.05;;;17.00;76.10;;;;;;10414057;28;20062;-57
2023/11/05 19:24:44;;;;;;;14.57;5.03;;;17.10;75.90;;;;;;10408009;28;20049;-58
2023/11/05 19:29:45;;;;;;;10.63;4.68;;;17.10;75.90;;;;;;10416888;28;20072;-57
2023/11/05 19:34:46;;;;;;;15.18;4.88;;;17.00;75.90;;;;;;10413030;28;20043;-57
2023/11/05 19:39:46;;;;;;;14.18;3.47;;;17.00;76.00;;;;;;10411905;28;20146;-58
2023/11/05 19:44:47;;;;;;;14.38;5.25;;;17.10;75.70;;;;;;10411440;28;20465;-58
2023/11/05 19:49:48;;;;;;;12.88;4.10;;;17.30;75.40;;;;;;10410883;28;20032;-58
2023/11/05 19:54:49;;;;;;;11.10;4.10;;;17.40;75.20;;;;;;10417417;28;20025;-58
2023/11/05 19:59:50;;;;;;;16.27;5.22;;;17.30;75.30;;;;;;10412525;28;20435;-58
2023/11/05 20:04:50;;;;;;;12.15;4.93;;;17.30;75.50;;;;;;10403783;28;20064;-58
2023/11/05 20:09:51;;;;;;;9.18;3.50;;;17.20;75.60;;;;;;10406537;28;20013;-57
2023/11/05 20:14:52;;;;;;;11.75;3.70;;;17.20;76.10;;;;;;10411613;28;20368;-58
2023/11/05 20:19:53;;;;;;;9.90;3.50;;;17.10;75.90;;;;;;10412118;28;20032;-58
2023/11/05 20:24:53;;;;;;;11.57;4.30;;;17.10;76.20;;;;;;10409688;28;20038;-58
2023/11/05 20:29:54;;;;;;;8.43;4.13;;;17.10;76.30;;;;;;10408496;28;20041;-58
2023/11/05 20:34:55;;;;;;;10.52;3.58;;;17.00;76.40;;;;;;10413517;28;20119;-58
2023/11/05 20:39:59;;;;;;;11.80;3.35;;;16.90;77.00;;;;;;10410753;28;20033;-58
2023/11/05 20:45:00;;;;;;;7.78;3.25;;;17.00;77.00;;;;;;10409137;28;20511;-58
2023/11/05 20:50:01;;;;;;;15.30;3.25;;;16.90;76.90;;;;;;10411069;28;20021;-58
2023/11/05 20:55:02;;;;;;;9.45;3.80;;;16.80;77.00;;;;;;10410416;28;20037;-58
2023/11/05 21:00:08;;;;;;;9.07;3.28;;;16.80;77.10;;;;;;10409552;28;20032;-59
2023/11/05 21:05:09;;;;;;;9.48;2.70;;;16.80;77.20;;;;;;10409489;28;20043;-58
2023/11/05 21:10:10;;;;;;;8.35;3.10;;;16.70;77.20;;;;;;10410194;28;20546;-58
2023/11/05 21:15:11;;;;;;;7.25;2.72;;;16.70;77.30;;;;;;10409578;28;20052;-57
2023/11/05 21:20:12;;;;;;;9.48;2.67;;;16.70;77.30;;;;;;10409967;28;20033;-58
2023/11/05 21:25:12;;;;;;;6.72;3.10;;;16.60;77.30;;;;;;10407842;28;20080;-58
2023/11/05 21:30:13;;;;;;;6.38;2.33;;;16.60;77.40;;;;;;10421317;28;20049;-57
2023/11/05 21:35:14;;;;;;;7.80;2.83;;;16.60;77.40;;;;;;10408988;28;20040;-58
2023/11/05 21:40:16;;;;;;;8.70;2.80;;;16.60;77.40;;;;;;10407975;28;20033;-58
2023/11/05 21:45:17;;;;;;;10.80;3.80;;;16.50;77.50;;;;;;10408570;28;20038;-58
2023/11/05 21:50:18;;;;;;;8.60;3.30;;;16.60;77.50;;;;;;10408821;28;20044;-58
2023/11/05 21:55:19;;;;;;;5.85;2.83;;;16.50;77.50;;;;;;10407082;28;20041;-58
2023/11/05 22:00:20;;;;;;;5.10;2.55;;;16.50;77.50;;;;;;10407184;28;20022;-58
2023/11/05 22:05:21;;;;;;;9.10;2.70;;;16.50;77.50;;;;;;10408037;28;20052;-58
2023/11/05 22:10:21;;;;;;;5.45;2.60;;;16.40;77.50;;;;;;10407009;28;20026;-58
2023/11/05 22:15:22;;;;;;;5.70;2.40;;;16.40;77.60;;;;;;10410566;28;20516;-58
2023/11/05 22:20:23;;;;;;;11.00;3.33;;;16.40;77.70;;;;;;10416874;28;20033;-59
2023/11/05 22:25:23;;;;;;;6.22;2.58;;;16.40;77.60;;;;;;10415955;28;20025;-58
2023/11/05 22:30:24;;;;;;;5.05;2.03;;;16.40;77.70;;;;;;10448499;28;20063;-58
2023/11/05 22:35:25;;;;;;;5.63;2.40;;;16.30;77.60;;;;;;10415681;28;20030;-58
2023/11/05 22:40:25;;;;;;;8.50;2.38;;;16.30;77.60;;;;;;10416028;28;20492;-58
2023/11/05 22:45:26;;;;;;;5.68;1.98;;;16.30;77.70;;;;;;10415457;28;20392;-58
2023/11/05 22:50:27;;;;;;;5.43;2.00;;;16.30;77.70;;;;;;10415480;28;20032;-58
2023/11/05 22:55:28;;;;;;;5.43;2.20;;;16.30;77.70;;;;;;10415122;28;20037;-56
2023/11/05 23:00:32;;;;;;;6.10;2.08;;;16.30;77.70;;;;;;10415429;28;20086;-56
2023/11/05 23:05:32;;;;;;;7.82;2.47;;;16.30;77.70;;;;;;10415073;28;20820;-56
2023/11/05 23:10:33;;;;;;;8.23;2.40;;;16.20;77.70;;;;;;10414662;28;20041;-56
2023/11/05 23:15:34;;;;;;;4.85;2.20;;;16.20;77.70;;;;;;10413441;28;20034;-56
2023/11/05 23:20:35;;;;;;;6.63;2.35;;;16.20;78.40;;;;;;10414529;28;20507;-56
2023/11/05 23:25:36;;;;;;;5.00;2.17;;;16.20;77.70;;;;;;10414074;28;20029;-56
2023/11/05 23:30:36;;;;;;;3.92;1.90;;;16.20;77.70;;;;;;10414549;28;20042;-56
2023/11/05 23:35:37;;;;;;;6.13;2.50;;;16.20;77.60;;;;;;10413658;28;20029;-56
2023/11/05 23:40:41;;;;;;;6.82;2.28;;;16.20;77.70;;;;;;10413580;28;20048;-56
2023/11/05 23:45:41;;;;;;;5.10;2.20;;;16.20;77.80;;;;;;10413416;28;20034;-56
2023/11/05 23:50:42;;;;;;;3.40;1.83;;;16.20;77.80;;;;;;10413606;28;20025;-56
2023/11/05 23:55:43;;;;;;;5.10;2.28;;;16.20;77.90;;;;;;10411654;28;20029;-56
